Time;durP1;ratioP1;P1;durP2;ratioP2;P2;SDS_P1;SDS_P2;PMS_P1;PMS_P2;Temp;Humidity;BMP_temperature;BMP_pressure;BME280_temperature;BME280_humidity;BME280_pressure;Samples;Min_cycle;Max_cycle;Signal;HPM_P1;HPM_P2
2023/03/08 00:00:48;;;;;;;4.18;0.85;;;1.00;99.90;;;;;;4979366;28;20093;-89
2023/03/08 00:03:34;;;;;;;9.27;1.20;;;1.00;99.90;;;;;;4974729;28;20050;-88
2023/03/08 00:06:21;;;;;;;6.85;1.30;;;1.00;99.90;;;;;;4961427;28;20097;-87
2023/03/08 00:09:14;;;;;;;3.72;0.98;;;1.00;99.90;;;;;;5143030;27;1397237;-88
2023/03/08 00:12:00;;;;;;;4.72;0.90;;;0.90;99.90;;;;;;5167762;27;20060;-88
2023/03/08 00:14:47;;;;;;;6.30;1.20;;;0.90;99.90;;;;;;5153435;27;20057;-87
2023/03/08 00:17:36;;;;;;;7.13;0.88;;;1.00;99.90;;;;;;5151765;27;20085;-88
2023/03/08 00:20:22;;;;;;;5.85;2.30;;;1.00;99.90;;;;;;5141587;27;20470;-88
2023/03/08 00:23:08;;;;;;;2.38;0.70;;;1.00;99.90;;;;;;5174999;27;20054;-88
2023/03/08 00:25:55;;;;;;;5.45;1.02;;;1.20;99.90;;;;;;5153073;27;20070;-87
2023/03/08 00:28:41;;;;;;;6.43;0.90;;;1.10;99.90;;;;;;5153320;27;20053;-88
2023/03/08 00:31:27;;;;;;;9.45;1.50;;;1.10;99.90;;;;;;5150484;27;20062;-88
2023/03/08 00:34:13;;;;;;;3.60;0.60;;;1.20;99.90;;;;;;5151337;27;20135;-87
2023/03/08 00:36:59;;;;;;;2.35;0.63;;;1.10;99.90;;;;;;5152489;27;20129;-88
2023/03/08 00:39:51;;;;;;;4.13;0.60;;;1.10;99.90;;;;;;5171307;27;20050;-88
2023/03/08 00:42:37;;;;;;;7.68;0.55;;;1.10;99.90;;;;;;5150136;27;20053;-88
2023/03/08 00:45:23;;;;;;;2.60;0.50;;;1.20;99.90;;;;;;5154295;27;20039;-87
2023/03/08 00:48:09;;;;;;;8.85;0.70;;;1.10;99.90;;;;;;5115145;27;20061;-87
2023/03/08 00:50:55;;;;;;;3.42;0.60;;;1.20;99.90;;;;;;5148489;27;20079;-86
2023/03/08 00:53:41;;;;;;;3.45;0.70;;;1.20;99.90;;;;;;5149342;27;20046;-87
2023/03/08 00:56:27;;;;;;;5.18;0.60;;;1.30;99.90;;;;;;5129315;27;20123;-87
2023/03/08 00:59:13;;;;;;;7.95;0.68;;;1.30;99.90;;;;;;5132205;27;20513;-87
2023/03/08 01:02:00;;;;;;;5.18;1.38;;;1.40;99.90;;;;;;5151456;27;20112;-88
2023/03/08 01:04:46;;;;;;;3.17;0.50;;;1.50;99.90;;;;;;5141082;27;20047;-88
2023/03/08 01:07:32;;;;;;;4.45;0.82;;;1.50;99.90;;;;;;5112202;27;20126;-88
2023/03/08 01:10:19;;;;;;;3.95;0.30;;;1.50;99.90;;;;;;5111533;28;20047;-87
2023/03/08 01:13:07;;;;;;;2.78;0.47;;;1.50;99.90;;;;;;5129146;28;20050;-89
2023/03/08 01:15:53;;;;;;;5.53;1.08;;;1.50;99.90;;;;;;5112240;28;20051;-88
2023/03/08 01:18:39;;;;;;;0.85;0.20;;;1.40;99.90;;;;;;5123211;28;20051;-88
2023/03/08 01:21:27;;;;;;;2.00;0.45;;;1.30;99.90;;;;;;5111197;28;20564;-89
2023/03/08 01:24:13;;;;;;;3.47;0.35;;;1.20;99.90;;;;;;5128601;27;20495;-88
2023/03/08 01:26:59;;;;;;;2.72;0.40;;;1.10;99.90;;;;;;5118542;28;20039;-88
2023/03/08 01:29:45;;;;;;;6.63;1.42;;;1.10;99.90;;;;;;5121660;28;20101;-88
2023/03/08 01:32:32;;;;;;;4.20;0.50;;;1.00;99.90;;;;;;5111506;28;20143;-89
2023/03/08 01:35:18;;;;;;;5.22;0.88;;;1.00;99.90;;;;;;5111265;28;20095;-87
2023/03/08 01:38:04;;;;;;;4.93;1.17;;;0.90;99.90;;;;;;5112721;28;20131;-87
2023/03/08 01:40:58;;;;;;;2.65;0.70;;;0.90;99.90;;;;;;5096026;28;20414;-88
2023/03/08 01:43:45;;;;;;;4.85;0.50;;;0.90;99.90;;;;;;5111270;28;20131;-87
2023/03/08 01:46:34;;;;;;;8.15;0.70;;;0.90;99.90;;;;;;5112050;28;20384;-88
2023/03/08 01:49:29;;;;;;;5.45;0.80;;;0.80;99.90;;;;;;5113231;28;20072;-87
2023/03/08 01:52:20;;;;;;;3.70;0.50;;;0.80;99.90;;;;;;5117882;28;20402;-88
2023/03/08 01:55:10;;;;;;;1.15;0.40;;;0.70;99.90;;;;;;5119851;28;20055;-88
2023/03/08 01:57:56;;;;;;;5.70;0.68;;;0.70;99.90;;;;;;5111438;28;20047;-88
2023/03/08 02:00:42;;;;;;;2.00;0.45;;;0.60;99.90;;;;;;5110905;28;20051;-88
2023/03/08 02:03:28;;;;;;;2.17;0.55;;;0.60;99.90;;;;;;5109979;28;20231;-88
2023/03/08 02:06:17;;;;;;;10.93;0.90;;;0.70;99.90;;;;;;5095144;28;20047;-87
2023/03/08 02:09:04;;;;;;;2.63;0.60;;;0.70;99.90;;;;;;5115283;28;20484;-87
2023/03/08 02:11:51;;;;;;;1.92;0.50;;;0.60;99.90;;;;;;5096675;28;20048;-89
2023/03/08 02:14:38;;;;;;;3.13;0.70;;;0.60;99.90;;;;;;5111338;28;20059;-88
2023/03/08 02:17:25;;;;;;;2.78;0.73;;;0.50;99.90;;;;;;5110730;28;20517;-88
2023/03/08 02:20:23;;;;;;;3.80;0.70;;;0.50;99.90;;;;;;5119060;28;20058;-88
2023/03/08 02:23:21;;;;;;;1.02;0.40;;;0.50;99.90;;;;;;5111196;28;20418;-88
2023/03/08 02:26:07;;;;;;;4.00;0.52;;;0.40;99.90;;;;;;5112261;28;20519;-87
2023/03/08 02:28:53;;;;;;;1.35;0.45;;;0.40;99.90;;;;;;5114206;28;20058;-88
2023/03/08 02:31:39;;;;;;;7.47;0.43;;;0.40;99.90;;;;;;5109067;28;20507;-88
2023/03/08 02:34:25;;;;;;;4.97;0.80;;;0.50;99.90;;;;;;5109506;28;20628;-87
2023/03/08 02:37:11;;;;;;;2.15;0.45;;;0.50;99.90;;;;;;5111042;28;20093;-88
2023/03/08 02:39:57;;;;;;;3.55;0.75;;;0.50;99.90;;;;;;5111154;28;20043;-88
2023/03/08 02:42:43;;;;;;;2.80;0.60;;;0.50;99.90;;;;;;5117678;28;20134;-87
2023/03/08 02:45:30;;;;;;;1.42;0.60;;;0.50;99.90;;;;;;5116207;28;20043;-88
2023/03/08 02:48:17;;;;;;;2.22;1.25;;;0.50;99.90;;;;;;5111231;28;20055;-88
2023/03/08 02:51:03;;;;;;;1.40;0.55;;;0.60;99.90;;;;;;5111437;28;20058;-87
2023/03/08 02:53:50;;;;;;;4.85;0.50;;;0.60;99.90;;;;;;5113936;28;20047;-88
2023/03/08 02:56:36;;;;;;;2.80;0.40;;;0.60;99.90;;;;;;5124905;28;20059;-88
2023/03/08 02:59:22;;;;;;;1.40;0.30;;;0.60;99.90;;;;;;5126257;28;20044;-88
2023/03/08 03:02:08;;;;;;;1.80;0.40;;;0.70;99.90;;;;;;5113243;28;20039;-87
2023/03/08 03:04:54;;;;;;;2.20;0.45;;;0.60;99.90;;;;;;5125173;28;20091;-88
2023/03/08 03:07:42;;;;;;;2.70;0.50;;;0.60;99.90;;;;;;5111149;28;20411;-88
2023/03/08 03:10:28;;;;;;;3.15;0.50;;;0.50;99.90;;;;;;5115077;28;20117;-88
2023/03/08 03:13:14;;;;;;;3.92;2.03;;;0.50;99.90;;;;;;5112412;28;20063;-88
2023/03/08 03:16:06;;;;;;;2.53;0.60;;;0.50;99.90;;;;;;5094258;28;20043;-87
2023/03/08 03:18:54;;;;;;;3.20;0.40;;;0.50;99.90;;;;;;5094905;28;20097;-88
2023/03/08 03:21:40;;;;;;;3.17;0.50;;;0.50;99.90;;;;;;5110632;28;20152;-88
2023/03/08 03:24:26;;;;;;;3.28;0.40;;;0.50;99.90;;;;;;5109659;28;20055;-87
2023/03/08 03:27:12;;;;;;;3.88;0.30;;;0.40;99.90;;;;;;5108776;28;20044;-88
2023/03/08 03:29:58;;;;;;;1.88;0.55;;;0.30;99.90;;;;;;5116835;28;20318;-88
2023/03/08 03:32:44;;;;;;;3.67;0.28;;;0.30;99.90;;;;;;5110574;28;20561;-87
2023/03/08 03:35:30;;;;;;;3.53;0.60;;;0.30;99.90;;;;;;5109572;28;20654;-88
2023/03/08 03:38:16;;;;;;;2.20;0.57;;;0.30;99.90;;;;;;5108237;28;20499;-88
2023/03/08 03:41:08;;;;;;;7.28;0.47;;;0.30;99.90;;;;;;5109447;28;20054;-88
2023/03/08 03:43:54;;;;;;;1.27;0.45;;;0.30;99.90;;;;;;5110152;28;20503;-88
2023/03/08 03:46:40;;;;;;;4.20;0.47;;;0.30;99.90;;;;;;5114514;28;20051;-89
2023/03/08 03:49:27;;;;;;;1.48;0.30;;;0.30;99.90;;;;;;5112651;28;20048;-89
2023/03/08 03:52:13;;;;;;;1.60;0.30;;;0.30;99.90;;;;;;5109483;28;20055;-89
2023/03/08 03:54:59;;;;;;;2.03;0.43;;;0.30;99.90;;;;;;5109182;28;20044;-89
2023/03/08 03:57:45;;;;;;;2.40;0.38;;;0.30;99.90;;;;;;5107582;28;20043;-89
2023/03/08 04:00:31;;;;;;;1.23;0.30;;;0.30;99.90;;;;;;5108932;28;20074;-87
2023/03/08 04:03:17;;;;;;;2.78;0.50;;;0.30;99.90;;;;;;5108749;28;20043;-86
2023/03/08 04:06:33;;;;;;;2.05;0.40;;;0.40;99.90;;;;;;5094256;28;20499;-87
2023/03/08 04:09:19;;;;;;;1.77;0.52;;;0.40;99.90;;;;;;5116252;28;20047;-87
2023/03/08 04:12:05;;;;;;;1.00;0.40;;;0.40;99.90;;;;;;5116000;28;20103;-87
2023/03/08 04:14:53;;;;;;;3.47;0.40;;;0.40;99.90;;;;;;5108939;28;20039;-87
2023/03/08 04:17:39;;;;;;;2.50;0.30;;;0.50;99.90;;;;;;5095138;28;20052;-88
2023/03/08 04:20:26;;;;;;;1.95;0.75;;;0.50;99.90;;;;;;5107595;28;20043;-88
2023/03/08 04:23:12;;;;;;;1.75;0.40;;;0.40;99.90;;;;;;5094192;28;20047;-88
2023/03/08 04:25:59;;;;;;;3.67;0.82;;;0.40;99.90;;;;;;5107357;28;20499;-87
2023/03/08 04:28:45;;;;;;;2.95;0.55;;;0.30;99.90;;;;;;5108773;28;20047;-88
2023/03/08 04:31:33;;;;;;;3.25;0.45;;;0.30;99.90;;;;;;5109314;28;20410;-88
2023/03/08 04:34:19;;;;;;;3.17;0.30;;;0.20;99.90;;;;;;5098476;28;20051;-87
2023/03/08 04:37:05;;;;;;;0.57;0.25;;;0.20;99.90;;;;;;5112664;28;20059;-88
2023/03/08 04:39:51;;;;;;;0.90;0.30;;;0.20;99.90;;;;;;5107376;28;20105;-87
2023/03/08 04:42:39;;;;;;;1.42;0.30;;;0.10;99.90;;;;;;5079144;28;20138;-88
2023/03/08 04:45:26;;;;;;;1.50;0.52;;;0.10;99.90;;;;;;5096485;28;20048;-88
2023/03/08 04:48:12;;;;;;;3.53;0.50;;;0.00;99.90;;;;;;5106649;28;20062;-88
2023/03/08 04:51:01;;;;;;;1.75;0.40;;;0.00;99.90;;;;;;5109063;28;20040;-88
2023/03/08 04:53:47;;;;;;;3.10;0.60;;;0.00;99.90;;;;;;5104394;28;20159;-87
2023/03/08 04:56:33;;;;;;;1.23;0.30;;;-0.10;99.90;;;;;;5116616;28;20377;-86
2023/03/08 04:59:19;;;;;;;1.52;0.47;;;-0.10;99.90;;;;;;5111513;28;20088;-86
2023/03/08 05:02:05;;;;;;;3.53;0.47;;;-0.10;99.90;;;;;;5081681;28;20054;-87
2023/03/08 05:04:51;;;;;;;3.17;1.10;;;-0.10;99.90;;;;;;5098169;28;20047;-87
2023/03/08 05:07:37;;;;;;;2.22;0.65;;;-0.10;99.90;;;;;;5113121;28;20160;-87
2023/03/08 05:10:23;;;;;;;3.85;0.55;;;-0.10;99.90;;;;;;5098486;28;20453;-86
2023/03/08 05:13:09;;;;;;;4.72;0.57;;;-0.10;99.90;;;;;;5096043;28;20039;-87
2023/03/08 05:15:56;;;;;;;1.25;0.63;;;-0.20;99.90;;;;;;5108376;28;20459;-88
2023/03/08 05:18:42;;;;;;;4.15;0.52;;;-0.10;99.90;;;;;;5100986;28;20200;-88
2023/03/08 05:21:28;;;;;;;2.63;0.50;;;-0.10;99.90;;;;;;5082299;28;20047;-87
2023/03/08 05:24:14;;;;;;;2.78;0.50;;;-0.10;99.90;;;;;;5099243;28;20051;-87
2023/03/08 05:27:00;;;;;;;5.82;0.47;;;0.00;99.90;;;;;;5081229;28;20044;-87
2023/03/08 05:29:46;;;;;;;2.63;0.50;;;0.00;99.90;;;;;;5113360;28;20040;-87
2023/03/08 05:32:32;;;;;;;0.93;0.35;;;0.00;99.90;;;;;;5094282;28;20043;-87
2023/03/08 05:35:18;;;;;;;4.15;0.60;;;0.00;99.90;;;;;;5081900;28;20040;-86
2023/03/08 05:38:04;;;;;;;2.40;0.50;;;0.00;99.90;;;;;;5115142;28;20051;-86
2023/03/08 05:40:50;;;;;;;6.43;0.80;;;0.00;99.90;;;;;;5122129;28;20043;-86
2023/03/08 05:43:36;;;;;;;3.33;0.57;;;0.00;99.90;;;;;;5099140;28;20040;-86
2023/03/08 05:46:22;;;;;;;1.50;0.47;;;-0.10;99.90;;;;;;5112559;28;20047;-86
2023/03/08 05:49:08;;;;;;;5.88;2.28;;;-0.10;99.90;;;;;;5081588;28;20087;-86
2023/03/08 05:51:54;;;;;;;2.42;0.77;;;-0.10;99.90;;;;;;5094038;28;20049;-87
2023/03/08 05:54:41;;;;;;;1.95;0.65;;;-0.10;99.90;;;;;;5098693;28;20055;-86
2023/03/08 05:57:27;;;;;;;4.38;0.68;;;-0.10;99.90;;;;;;5082172;28;20510;-87
2023/03/08 06:00:14;;;;;;;1.65;0.40;;;-0.10;99.90;;;;;;5102444;28;20409;-87
2023/03/08 06:03:02;;;;;;;8.40;1.65;;;-0.10;99.90;;;;;;5115854;28;20130;-87
2023/03/08 06:05:48;;;;;;;3.00;0.90;;;-0.10;99.90;;;;;;5113083;28;20482;-87
2023/03/08 06:08:35;;;;;;;2.50;0.47;;;-0.10;99.90;;;;;;5098015;28;20112;-86
2023/03/08 06:11:21;;;;;;;4.78;0.70;;;-0.10;99.90;;;;;;5100355;28;20082;-87
2023/03/08 06:14:07;;;;;;;3.85;0.70;;;-0.10;99.90;;;;;;5111856;28;20055;-87
2023/03/08 06:16:53;;;;;;;2.45;0.75;;;0.00;99.90;;;;;;5113396;28;20121;-87
2023/03/08 06:19:39;;;;;;;6.15;0.80;;;0.00;99.90;;;;;;5102052;28;20059;-87
2023/03/08 06:22:25;;;;;;;2.95;0.85;;;0.00;99.90;;;;;;5096456;28;20046;-87
2023/03/08 06:25:11;;;;;;;6.00;1.10;;;0.10;99.90;;;;;;5125063;28;20130;-86
2023/03/08 06:27:57;;;;;;;7.88;0.70;;;0.20;99.90;;;;;;5094260;28;20048;-87
2023/03/08 06:30:43;;;;;;;3.22;1.02;;;0.30;99.90;;;;;;5081364;28;20054;-87
2023/03/08 06:33:31;;;;;;;1.98;0.40;;;0.30;99.90;;;;;;5099234;28;20509;-87
2023/03/08 06:36:19;;;;;;;2.22;0.60;;;0.40;99.90;;;;;;5112016;28;20048;-87
2023/03/08 06:39:05;;;;;;;2.00;0.40;;;0.40;99.90;;;;;;5081128;28;20047;-87
2023/03/08 06:41:51;;;;;;;0.77;0.30;;;0.50;99.90;;;;;;5098092;28;20142;-88
2023/03/08 06:44:37;;;;;;;0.75;0.22;;;0.60;99.90;;;;;;5097232;28;20388;-88
2023/03/08 06:47:24;;;;;;;6.68;0.93;;;0.60;99.90;;;;;;5110955;28;20395;-88
2023/03/08 06:50:10;;;;;;;3.08;0.30;;;0.70;99.90;;;;;;5096720;28;20044;-88
2023/03/08 06:52:56;;;;;;;2.50;0.70;;;0.70;99.90;;;;;;5095364;28;20047;-89
2023/03/08 06:55:42;;;;;;;4.13;0.50;;;0.80;99.90;;;;;;5066560;28;20058;-86
2023/03/08 06:58:29;;;;;;;2.60;0.63;;;0.80;99.90;;;;;;5097386;28;20079;-87
2023/03/08 07:01:16;;;;;;;2.78;0.70;;;0.90;99.90;;;;;;5095814;28;20052;-87
2023/03/08 07:04:03;;;;;;;1.35;0.50;;;0.80;99.90;;;;;;5111607;28;20415;-86
2023/03/08 07:06:49;;;;;;;3.25;0.63;;;0.70;99.90;;;;;;5093786;28;20051;-87
2023/03/08 07:09:35;;;;;;;5.70;0.82;;;0.70;99.90;;;;;;5078268;28;20044;-87
2023/03/08 07:12:21;;;;;;;3.90;0.95;;;0.70;99.90;;;;;;5073111;28;20052;-87
2023/03/08 07:15:09;;;;;;;5.95;0.82;;;0.70;99.90;;;;;;5095815;28;20051;-87
2023/03/08 07:17:56;;;;;;;3.80;0.63;;;0.80;99.90;;;;;;5090843;28;20048;-88
2023/03/08 10:26:30;;;;;;;5.60;1.25;;;5.40;99.90;;;;;;5116105;28;20103;-90
2023/03/08 10:29:17;;;;;;;1.15;0.50;;;5.60;99.90;;;;;;5115858;28;20062;-87
2023/03/08 10:32:03;;;;;;;4.50;0.68;;;5.80;99.90;;;;;;5136918;27;20047;-89
2023/03/08 10:34:49;;;;;;;6.45;0.85;;;5.80;99.90;;;;;;5136245;27;20051;-88
2023/03/08 10:37:35;;;;;;;3.80;0.75;;;5.90;99.90;;;;;;5133761;27;20088;-89
2023/03/08 10:40:21;;;;;;;5.88;1.10;;;6.10;99.90;;;;;;5113097;27;20552;-87
2023/03/08 10:43:23;;;;;;;7.63;1.25;;;6.00;99.90;;;;;;5133282;27;20498;-86
2023/03/08 10:46:18;;;;;;;3.40;0.77;;;6.30;99.90;;;;;;5134101;27;20096;-89
2023/03/08 10:49:13;;;;;;;8.13;1.42;;;6.40;99.90;;;;;;5136127;27;20055;-87
2023/03/08 10:52:00;;;;;;;5.30;0.90;;;6.50;99.90;;;;;;5118084;27;20043;-90
2023/03/08 10:55:18;;;;;;;4.32;0.70;;;6.50;99.90;;;;;;5135293;27;20055;-91
2023/03/08 10:58:25;;;;;;;4.28;0.60;;;6.70;99.90;;;;;;5113610;27;20047;-87
2023/03/08 11:01:28;;;;;;;6.32;0.70;;;6.90;99.90;;;;;;5130843;27;20079;-87
2023/03/08 11:04:19;;;;;;;4.93;0.70;;;7.20;99.90;;;;;;5132892;27;20058;-86
2023/03/08 11:07:36;;;;;;;4.72;0.75;;;7.40;99.90;;;;;;5134882;27;20039;-85
2023/03/08 11:10:25;;;;;;;3.17;0.70;;;7.40;99.90;;;;;;5132991;27;20058;-88
2023/03/08 11:13:25;;;;;;;2.60;0.70;;;7.40;99.90;;;;;;5116613;27;20047;-87
2023/03/08 11:16:43;;;;;;;5.82;2.03;;;7.60;99.90;;;;;;5113693;27;20047;-88
2023/03/08 11:19:38;;;;;;;6.32;1.10;;;7.90;99.90;;;;;;5125403;27;20054;-88
2023/03/08 11:22:40;;;;;;;6.15;1.58;;;8.30;99.90;;;;;;5099502;27;20096;-85
2023/03/08 11:25:56;;;;;;;6.63;1.13;;;8.40;99.90;;;;;;5132943;27;20137;-90
2023/03/08 11:28:56;;;;;;;;;;;8.50;99.90;;;;;;5113654;27;20051;-89
2023/03/08 11:31:51;;;;;;;12.15;1.75;;;8.40;98.40;;;;;;5152318;27;19930;-88
2023/03/08 11:35:22;;;;;;;6.53;0.90;;;8.60;99.90;;;;;;5120766;27;20046;-89
2023/03/08 11:38:13;;;;;;;3.17;0.57;;;8.80;99.90;;;;;;5121125;27;20059;-87
2023/03/08 11:41:14;;;;;;;7.65;0.93;;;8.80;99.90;;;;;;5125401;27;20061;-86
2023/03/08 11:44:08;;;;;;;4.72;0.80;;;8.80;99.20;;;;;;5115478;27;20050;-86
2023/03/08 11:46:56;;;;;;;4.80;0.55;;;8.70;99.90;;;;;;5130571;27;20571;-86
2023/03/08 11:50:15;;;;;;;4.10;0.52;;;8.80;99.90;;;;;;5133307;27;20047;-86
2023/03/08 11:53:29;;;;;;;2.38;0.60;;;8.90;98.60;;;;;;5097574;27;20084;-86
2023/03/08 11:56:46;;;;;;;2.88;0.47;;;9.10;98.30;;;;;;5131858;27;20077;-86
2023/03/08 11:59:43;;;;;;;4.55;1.33;;;9.40;98.40;;;;;;5136854;27;20137;-90
2023/03/08 12:02:36;;;;;;;3.08;0.60;;;9.50;96.20;;;;;;5130474;27;20047;-86
2023/03/08 12:05:32;;;;;;;3.70;0.57;;;9.50;96.40;;;;;;5130390;27;20050;-85
2023/03/08 12:08:34;;;;;;;1.90;0.55;;;9.60;96.20;;;;;;5108896;27;20039;-86
2023/03/08 12:11:26;;;;;;;2.47;0.50;;;9.70;96.50;;;;;;5110419;28;20048;-86
2023/03/08 12:14:17;;;;;;;6.13;0.65;;;9.50;96.00;;;;;;5108553;28;20565;-86
2023/03/08 12:17:11;;;;;;;2.42;0.40;;;9.40;96.00;;;;;;5112605;28;20051;-90
2023/03/08 12:19:57;;;;;;;2.30;0.60;;;9.30;96.00;;;;;;5112815;28;20062;-87
2023/03/08 12:22:46;;;;;;;3.08;0.80;;;9.40;95.60;;;;;;5110603;28;20043;-87
2023/03/08 12:25:37;;;;;;;2.50;0.57;;;9.30;95.30;;;;;;5111500;28;20055;-86
2023/03/08 12:28:35;;;;;;;4.78;0.82;;;9.50;95.50;;;;;;5100813;28;20092;-91
2023/03/08 12:31:24;;;;;;;5.03;0.65;;;9.60;94.30;;;;;;5112424;28;20074;-86
2023/03/08 12:34:26;;;;;;;3.17;0.80;;;9.80;94.90;;;;;;5097888;28;20058;-86
2023/03/08 12:37:29;;;;;;;4.05;0.98;;;9.60;94.20;;;;;;5098057;28;20082;-86
2023/03/08 12:40:38;;;;;;;2.85;0.77;;;9.60;93.80;;;;;;5115160;28;20372;-88
2023/03/08 12:43:24;;;;;;;1.98;0.50;;;9.60;93.80;;;;;;5117442;28;20085;-89
2023/03/08 12:46:10;;;;;;;4.68;0.55;;;9.90;95.30;;;;;;5124863;28;20051;-89
2023/03/08 12:48:56;;;;;;;3.70;0.75;;;10.10;94.30;;;;;;5129757;28;20057;-86
2023/03/08 12:51:42;;;;;;;2.00;0.35;;;10.60;93.90;;;;;;5096810;28;20082;-86
2023/03/08 12:54:32;;;;;;;2.92;0.70;;;11.00;92.70;;;;;;5097192;28;20479;-87
2023/03/08 12:57:22;;;;;;;6.70;0.82;;;11.30;92.50;;;;;;5129649;28;20142;-86
2023/03/08 13:00:29;;;;;;;3.13;0.60;;;11.70;92.40;;;;;;5113493;28;20461;-86
2023/03/08 13:03:15;;;;;;;4.05;0.50;;;12.10;91.50;;;;;;5129679;28;20052;-91
2023/03/08 13:06:22;;;;;;;3.70;0.40;;;12.50;91.10;;;;;;5139984;28;20055;-87
2023/03/08 13:09:19;;;;;;;1.85;0.30;;;12.90;88.40;;;;;;5139267;28;20078;-86
2023/03/08 13:12:20;;;;;;;6.97;0.82;;;13.10;86.10;;;;;;5128918;28;20152;-87
2023/03/08 13:15:20;;;;;;;4.13;0.50;;;12.70;85.30;;;;;;5130313;27;20478;-87
2023/03/08 13:18:08;;;;;;;5.78;0.82;;;12.80;83.70;;;;;;5114618;27;20100;-90
2023/03/08 13:21:12;;;;;;;3.30;0.40;;;12.60;85.00;;;;;;5133230;27;20046;-92
2023/03/08 13:24:08;;;;;;;5.47;0.70;;;12.10;82.30;;;;;;5102838;27;20388;-89
2023/03/08 13:27:15;;;;;;;3.90;0.57;;;12.00;83.60;;;;;;5136175;27;20046;-89
2023/03/08 13:30:21;;;;;;;3.03;0.90;;;11.70;81.00;;;;;;5114577;27;20050;-90
2023/03/08 13:33:13;;;;;;;3.78;0.30;;;11.60;80.90;;;;;;5133681;27;20447;-86
2023/03/08 13:36:12;;;;;;;2.97;0.50;;;11.90;85.50;;;;;;5133154;27;20096;-88
2023/03/08 13:39:02;;;;;;;4.53;0.77;;;12.10;82.00;;;;;;5119285;27;20039;-90
2023/03/08 13:41:49;;;;;;;1.23;0.40;;;11.90;83.90;;;;;;5133298;27;20051;-90
2023/03/08 13:44:35;;;;;;;2.30;0.60;;;11.70;81.80;;;;;;5114957;27;20126;-90
2023/03/08 13:47:25;;;;;;;4.63;0.65;;;11.50;83.30;;;;;;5100242;27;20054;-88
2023/03/08 13:50:32;;;;;;;3.13;0.68;;;11.30;83.10;;;;;;5137428;27;20043;-90
2023/03/08 13:53:28;;;;;;;5.55;0.82;;;11.30;81.80;;;;;;5119615;27;20134;-90
2023/03/08 13:56:26;;;;;;;3.00;0.55;;;11.10;81.70;;;;;;5099600;27;20040;-89
2023/03/08 13:59:19;;;;;;;2.28;0.40;;;10.80;82.40;;;;;;5137395;27;20050;-87
2023/03/08 14:02:27;;;;;;;3.65;0.70;;;10.60;84.10;;;;;;5136137;27;20106;-92
2023/03/08 14:05:22;;;;;;;2.13;0.30;;;10.50;83.00;;;;;;5133402;27;20050;-90
2023/03/08 14:08:24;;;;;;;4.75;0.57;;;10.40;83.70;;;;;;5133006;27;20055;-91
2023/03/08 14:11:17;;;;;;;2.85;0.50;;;10.30;82.90;;;;;;5136391;27;20043;-91
2023/03/08 14:14:12;;;;;;;5.07;1.05;;;10.50;84.90;;;;;;5102187;27;20095;-89
2023/03/08 14:16:59;;;;;;;4.75;0.88;;;10.70;84.90;;;;;;5114108;27;20150;-87
2023/03/08 14:19:51;;;;;;;3.72;0.77;;;11.10;84.90;;;;;;5139356;27;20138;-87
2023/03/08 14:22:38;;;;;;;4.07;0.47;;;11.40;83.60;;;;;;5134763;27;20091;-90
2023/03/08 14:25:30;;;;;;;3.17;0.70;;;12.10;84.10;;;;;;5131557;27;20043;-92
2023/03/08 14:28:33;;;;;;;3.03;0.45;;;12.50;81.40;;;;;;5117446;27;20376;-89
2023/03/08 14:31:24;;;;;;;2.15;0.75;;;13.00;78.30;;;;;;5138960;27;20039;-90
2023/03/08 14:34:20;;;;;;;3.65;0.80;;;13.40;79.20;;;;;;5132057;27;20043;-92
2023/03/08 14:37:19;;;;;;;2.90;0.60;;;13.20;75.90;;;;;;5116814;27;20054;-86
2023/03/08 14:40:20;;;;;;;3.92;1.00;;;12.60;76.50;;;;;;5115200;27;20047;-91
2023/03/08 14:43:16;;;;;;;7.28;1.05;;;12.30;77.80;;;;;;5113246;27;20054;-91
2023/03/08 14:46:05;;;;;;;3.42;0.85;;;11.80;79.30;;;;;;5114241;27;20808;-90
2023/03/08 14:49:03;;;;;;;4.57;0.93;;;11.30;82.00;;;;;;5114691;27;20047;-90
2023/03/08 14:51:49;;;;;;;4.70;1.00;;;11.00;83.70;;;;;;5137576;27;20046;-89
2023/03/08 14:54:37;;;;;;;4.00;0.80;;;10.70;84.70;;;;;;5138089;27;20079;-90
2023/03/08 14:57:27;;;;;;;3.10;0.90;;;10.30;85.60;;;;;;5131919;27;20047;-90
2023/03/08 15:00:14;;;;;;;5.60;0.93;;;10.30;86.90;;;;;;5131274;27;20450;-90
2023/03/08 15:03:00;;;;;;;3.00;0.80;;;10.30;88.80;;;;;;5099843;27;20701;-92
2023/03/08 15:05:47;;;;;;;4.95;0.95;;;10.40;88.30;;;;;;5132042;27;20411;-87
2023/03/08 15:08:33;;;;;;;3.20;0.50;;;10.40;88.60;;;;;;5133176;27;20392;-91
2023/03/08 15:11:19;;;;;;;3.08;1.15;;;10.40;87.90;;;;;;5134335;27;20050;-90
2023/03/08 15:14:05;;;;;;;3.30;0.80;;;10.30;88.00;;;;;;5119296;27;20103;-92
2023/03/08 15:16:54;;;;;;;5.53;1.10;;;10.00;88.10;;;;;;5137621;27;20122;-91
2023/03/08 15:19:40;;;;;;;5.32;0.88;;;9.90;89.30;;;;;;5115799;27;20059;-89
2023/03/08 15:22:26;;;;;;;3.65;0.70;;;9.80;89.30;;;;;;5132418;27;20039;-88
2023/03/08 15:25:14;;;;;;;2.03;0.60;;;10.10;88.30;;;;;;5133697;27;20049;-89
2023/03/08 15:28:00;;;;;;;2.13;0.70;;;10.30;87.70;;;;;;5131799;27;20403;-88
2023/03/08 15:30:48;;;;;;;7.07;1.02;;;10.10;87.50;;;;;;5130322;27;20043;-86
2023/03/08 15:33:34;;;;;;;3.67;0.63;;;9.90;87.40;;;;;;5112034;27;20536;-89
2023/03/08 15:36:20;;;;;;;3.72;0.70;;;9.70;88.10;;;;;;5116363;27;20093;-88
2023/03/08 15:39:08;;;;;;;2.58;0.70;;;9.40;88.40;;;;;;5131935;27;20115;-90
2023/03/08 15:41:54;;;;;;;6.13;1.02;;;9.10;89.30;;;;;;5106010;27;20043;-90
2023/03/08 15:44:41;;;;;;;3.10;0.80;;;8.70;90.30;;;;;;5130417;27;20119;-90
2023/03/08 15:47:27;;;;;;;3.42;0.80;;;8.50;90.80;;;;;;5112083;27;20047;-92
2023/03/08 15:50:16;;;;;;;4.18;0.93;;;8.30;91.20;;;;;;5111968;27;20087;-91
2023/03/08 15:53:02;;;;;;;2.85;0.90;;;8.20;91.80;;;;;;5104133;27;20043;-86
2023/03/08 15:55:49;;;;;;;7.55;1.05;;;8.00;92.30;;;;;;5118756;28;20045;-90
2023/03/08 15:58:35;;;;;;;5.63;1.42;;;7.80;92.30;;;;;;5121700;27;20107;-91
2023/03/08 16:01:23;;;;;;;3.67;0.80;;;7.80;92.50;;;;;;5099923;27;20058;-89
2023/03/08 16:04:09;;;;;;;6.30;1.55;;;7.70;92.60;;;;;;5117813;27;20053;-92
2023/03/08 16:06:55;;;;;;;4.75;1.30;;;7.50;92.30;;;;;;5111934;28;20075;-90
2023/03/08 16:09:41;;;;;;;5.28;1.13;;;7.20;92.00;;;;;;5144095;27;20048;-90
2023/03/08 16:12:27;;;;;;;3.78;0.70;;;7.00;92.30;;;;;;5131003;28;20048;-91
2023/03/08 16:15:13;;;;;;;6.43;0.90;;;6.90;92.70;;;;;;5132510;28;20444;-91
2023/03/08 16:17:59;;;;;;;2.10;0.68;;;6.80;92.80;;;;;;5144563;28;20043;-91
2023/03/08 16:20:45;;;;;;;1.77;0.70;;;6.70;92.80;;;;;;5115938;28;20066;-92
2023/03/08 16:23:31;;;;;;;4.80;0.70;;;6.70;93.30;;;;;;5115187;28;20054;-88
2023/03/08 16:26:18;;;;;;;6.05;0.73;;;6.60;93.20;;;;;;5132000;27;20141;-91
2023/03/08 16:29:04;;;;;;;2.38;0.55;;;6.50;93.50;;;;;;5130165;28;20086;-91
2023/03/08 16:31:50;;;;;;;2.22;0.50;;;6.50;94.00;;;;;;5130487;28;20047;-91
2023/03/08 16:34:36;;;;;;;5.90;0.70;;;6.30;94.00;;;;;;5115186;28;20035;-91
2023/03/08 16:37:23;;;;;;;9.02;0.88;;;6.20;94.00;;;;;;5117900;28;20104;-90
2023/03/08 16:40:10;;;;;;;4.63;0.70;;;6.10;94.20;;;;;;5145905;28;20047;-91
2023/03/08 16:42:57;;;;;;;6.28;0.75;;;6.00;94.50;;;;;;5112792;28;20047;-91
2023/03/08 16:45:54;;;;;;;7.40;1.20;;;5.90;94.90;;;;;;5133034;28;20090;-91
2023/03/08 16:48:40;;;;;;;6.70;0.80;;;5.80;95.40;;;;;;5114691;28;20130;-90
2023/03/08 16:51:27;;;;;;;2.42;1.00;;;5.70;95.90;;;;;;5134014;27;20494;-91
2023/03/08 16:54:13;;;;;;;1.90;0.55;;;5.60;96.10;;;;;;5118967;27;20562;-87
2023/03/08 16:56:59;;;;;;;5.70;0.82;;;5.50;96.40;;;;;;5118669;27;20066;-90
2023/03/08 16:59:46;;;;;;;5.07;1.45;;;5.40;96.90;;;;;;5135991;27;20116;-90
2023/03/08 17:02:32;;;;;;;7.43;1.15;;;5.30;97.30;;;;;;5143574;27;20054;-92
2023/03/08 17:05:18;;;;;;;3.08;0.70;;;5.10;97.50;;;;;;5135261;27;20043;-91
2023/03/08 17:08:04;;;;;;;4.45;0.68;;;5.00;97.70;;;;;;5121087;27;20099;-89
2023/03/08 17:10:51;;;;;;;3.10;0.68;;;4.90;98.10;;;;;;5139810;27;20039;-87
2023/03/08 17:13:37;;;;;;;5.43;0.90;;;4.90;98.30;;;;;;5103692;27;20127;-90
2023/03/08 17:16:25;;;;;;;6.57;0.90;;;4.80;98.70;;;;;;5134627;27;20107;-89
2023/03/08 17:19:12;;;;;;;5.70;1.10;;;4.70;98.80;;;;;;5118145;27;20567;-90
2023/03/08 17:21:58;;;;;;;4.75;0.98;;;4.70;99.00;;;;;;5117361;27;20071;-91
2023/03/08 17:24:44;;;;;;;3.25;0.90;;;4.60;99.40;;;;;;5134016;27;20095;-88
2023/03/08 17:27:30;;;;;;;3.78;1.00;;;4.50;99.70;;;;;;5135934;27;20370;-87
2023/03/08 17:30:17;;;;;;;3.65;0.88;;;4.50;99.90;;;;;;5136429;27;20049;-91
2023/03/08 17:33:03;;;;;;;3.75;0.88;;;4.40;99.90;;;;;;5135539;27;20058;-88
2023/03/08 17:35:52;;;;;;;3.28;0.93;;;4.40;99.90;;;;;;5143636;27;20115;-90
2023/03/08 17:38:38;;;;;;;4.72;0.90;;;4.30;99.90;;;;;;5135264;27;20057;-91
2023/03/08 17:41:24;;;;;;;3.50;1.00;;;4.30;99.90;;;;;;5135398;27;20051;-90
2023/03/08 17:44:11;;;;;;;7.55;2.25;;;4.20;99.90;;;;;;5119860;27;20043;-86
2023/03/08 17:46:57;;;;;;;3.83;1.58;;;4.10;99.90;;;;;;5115197;27;20051;-89
2023/03/08 17:49:43;;;;;;;11.52;1.30;;;4.10;99.90;;;;;;5133319;27;20039;-91
2023/03/08 17:52:30;;;;;;;4.25;1.08;;;4.10;99.90;;;;;;5119071;27;20103;-91
2023/03/08 17:55:16;;;;;;;7.00;1.38;;;4.00;99.90;;;;;;5141314;27;20079;-91
2023/03/08 17:58:02;;;;;;;5.97;1.67;;;4.00;99.90;;;;;;5143399;27;20051;-85